EDDB

Berlin-Schönefeld International Airport

Berlin, Germany
METAR EDDB 170550Z 31009KT 9999 SCT006 BKN016 01/00 Q1014 NOSIG
Observed Flight Rules
Dec-17 @ 05:50 UTC (30 minutes ago) Marginal Visual Flight Rules
Wind Visibility Clouds
310° at 9 knots 10,000+ meters
  • Scattered at 600' AGL
  • Broken at 1,600' AGL
Temperatures Readings
Current 1°C / 34°F
Dewpoint 0°C / 32°F
Humidity 93%
Altimeter 29.94" Hg
Pressure 1014 hPa
Elevation 48
METAR EDDB 170550Z 31009KT 9999 SCT006 BKN016 01/00 Q1014 NOSIG
Observed Flight Rules
Dec-17 @ 05:50 UTC
(30 minutes ago)
MVFR
Wind Visibility
310° at 9 knots 10,000+ meters
Clouds
  • Scattered at 600' AGL
  • Broken at 1,600' AGL
Temperature Dewpoint
1°C / 34°F 0°C / 32°F
Humidity Altimeter Pressure
93% 29.94" Hg 1014 hPa